createdAt,value
2023-02-13T00:00:34.687Z,7.73
2023-02-13T00:05:36.172Z,7.68
2023-02-13T00:10:37.771Z,7.80
2023-02-13T00:15:39.284Z,7.69
2023-02-13T00:20:40.777Z,7.85
2023-02-13T00:25:42.269Z,7.42
2023-02-13T00:30:43.792Z,7.92
2023-02-13T00:35:45.313Z,7.73
2023-02-13T00:40:46.777Z,7.61
2023-02-13T00:45:48.239Z,7.50
2023-02-13T00:50:49.702Z,7.55
2023-02-13T00:55:51.629Z,7.58
2023-02-13T01:00:54.537Z,7.55
2023-02-13T01:05:58.098Z,7.32
2023-02-13T01:11:00.831Z,7.47
2023-02-13T01:16:02.348Z,7.45
2023-02-13T01:21:07.274Z,7.46
2023-02-13T01:26:19.515Z,7.63
2023-02-13T01:31:21.820Z,7.53
2023-02-13T01:36:26.434Z,7.39
2023-02-13T01:41:29.226Z,7.42
2023-02-13T01:46:43.089Z,7.55
2023-02-13T01:51:46.699Z,7.31
2023-02-13T01:56:55.422Z,7.36
2023-02-13T02:02:00.255Z,7.37
2023-02-13T02:07:08.427Z,7.42
2023-02-13T02:12:42.389Z,7.17
2023-02-13T02:17:46.316Z,7.34
2023-02-13T02:22:59.845Z,7.40
2023-02-13T02:28:30.473Z,7.86
2023-02-13T02:34:10.672Z,7.27
2023-02-13T02:39:20.836Z,7.53
2023-02-13T02:44:49.442Z,7.45
2023-02-13T02:50:00.290Z,7.74
2023-02-13T02:55:31.063Z,7.83
2023-02-13T03:00:53.296Z,7.35
2023-02-13T03:06:11.714Z,7.91
2023-02-13T03:11:31.831Z,7.74
2023-02-13T03:16:52.114Z,7.47
2023-02-13T03:22:21.489Z,7.50
2023-02-13T03:28:03.853Z,7.84
2023-02-13T03:33:13.598Z,7.78
2023-02-13T03:38:24.908Z,7.52
2023-02-13T03:43:29.890Z,7.42
2023-02-13T03:48:54.703Z,7.27
2023-02-13T03:54:00.955Z,7.47
2023-02-13T03:59:13.759Z,7.29
2023-02-13T04:04:40.077Z,7.14
2023-02-13T04:09:42.974Z,7.84
2023-02-13T04:14:58.762Z,7.89
2023-02-13T04:20:00.525Z,7.71
2023-02-13T04:25:02.071Z,7.74
2023-02-13T04:30:03.965Z,7.82
2023-02-13T04:35:05.760Z,7.96
2023-02-13T04:40:07.871Z,7.69
2023-02-13T04:45:10.015Z,7.73
2023-02-13T04:50:11.486Z,7.63
2023-02-13T04:55:13.678Z,7.30
2023-02-13T05:00:15.387Z,7.61
2023-02-13T05:05:17.427Z,7.19
2023-02-13T05:10:19.016Z,7.18
2023-02-13T05:15:20.610Z,7.25
2023-02-13T05:20:22.138Z,7.29
2023-02-13T05:25:23.575Z,7.69
2023-02-13T05:30:25.544Z,7.89
2023-02-13T05:35:27.086Z,7.81
2023-02-13T05:40:28.524Z,7.71
2023-02-13T05:45:29.955Z,7.84
2023-02-13T05:50:31.421Z,7.50
2023-02-13T05:55:32.938Z,7.57
2023-02-13T06:00:34.389Z,7.69
2023-02-13T06:05:35.872Z,8.05
2023-02-13T06:10:37.596Z,7.97
2023-02-13T06:15:39.400Z,7.78
2023-02-13T06:20:40.882Z,7.89
2023-02-13T06:25:42.347Z,7.83
2023-02-13T06:30:43.915Z,7.76
2023-02-13T06:35:45.413Z,7.75
2023-02-13T06:40:47.995Z,7.81
2023-02-13T06:45:51.812Z,7.83
2023-02-13T06:50:53.522Z,7.91
2023-02-13T06:55:56.165Z,7.97
2023-02-13T07:00:57.970Z,8.05
2023-02-13T07:05:59.635Z,7.94
2023-02-13T07:11:01.112Z,8.18
2023-02-13T07:16:02.799Z,8.24
2023-02-13T07:21:04.444Z,8.38
2023-02-13T07:26:06.306Z,8.34
2023-02-13T07:31:08.111Z,8.57
2023-02-13T07:36:09.756Z,8.65
2023-02-13T07:41:11.219Z,8.96
2023-02-13T07:46:12.716Z,8.87
2023-02-13T07:51:14.235Z,9.10
2023-02-13T07:56:15.764Z,9.27
2023-02-13T08:01:17.370Z,8.99
2023-02-13T08:06:20.262Z,9.11
2023-02-13T08:11:49.938Z,9.25
2023-02-13T08:16:52.743Z,9.34
2023-02-13T08:21:54.279Z,9.60
2023-02-13T08:26:56.560Z,9.21
2023-02-13T08:31:58.154Z,9.62
2023-02-13T08:36:59.665Z,9.67
2023-02-13T08:42:01.157Z,9.65
2023-02-13T08:47:03.866Z,9.55
2023-02-13T08:52:05.798Z,9.76
2023-02-13T08:57:08.591Z,9.56
2023-02-13T09:02:12.066Z,9.59
2023-02-13T09:07:13.600Z,9.66
2023-02-13T09:12:15.226Z,9.68
2023-02-13T09:17:18.962Z,9.60
2023-02-13T09:22:20.499Z,9.68
2023-02-13T09:27:21.965Z,9.97
2023-02-13T09:32:23.413Z,10.11
2023-02-13T09:37:24.950Z,10.54
2023-02-13T09:42:30.242Z,10.43
2023-02-13T09:47:35.565Z,10.62
2023-02-13T09:52:38.925Z,10.39
2023-02-13T09:57:47.167Z,10.79
2023-02-13T10:02:57.775Z,10.55
2023-02-13T10:08:21.178Z,10.32
2023-02-13T10:13:41.010Z,10.52
2023-02-13T10:19:00.947Z,10.69
2023-02-13T10:24:18.612Z,10.32
2023-02-13T10:29:44.236Z,10.69
2023-02-13T10:34:47.925Z,10.70
2023-02-13T10:39:51.717Z,10.90
2023-02-13T10:45:24.279Z,10.87
2023-02-13T10:50:40.057Z,10.93
2023-02-13T10:55:47.543Z,11.54
2023-02-13T11:00:52.827Z,12.20
2023-02-13T11:05:57.414Z,11.56
2023-02-13T11:10:59.338Z,10.71
2023-02-13T11:16:10.449Z,11.00
2023-02-13T11:21:20.867Z,11.56
2023-02-13T11:26:27.165Z,11.75
2023-02-13T11:31:31.520Z,12.41
2023-02-13T11:36:34.231Z,12.25
2023-02-13T11:41:44.369Z,12.08
2023-02-13T11:46:48.984Z,12.11
2023-02-13T11:51:54.097Z,11.92
2023-02-13T11:57:05.203Z,12.62
2023-02-13T12:02:28.297Z,12.20
2023-02-13T12:07:32.272Z,13.13
2023-02-13T12:12:42.523Z,13.46
2023-02-13T12:17:46.834Z,13.91
2023-02-13T12:23:12.322Z,14.06
2023-02-13T12:28:24.744Z,14.11
2023-02-13T12:33:57.410Z,13.63
2023-02-13T12:39:13.866Z,13.54
2023-02-13T12:44:41.456Z,14.21
2023-02-13T12:50:01.150Z,13.01
2023-02-13T12:55:14.718Z,13.60
2023-02-13T13:00:54.812Z,13.24
2023-02-13T13:06:21.428Z,14.07
2023-02-13T13:12:00.604Z,14.41
2023-02-13T13:17:13.850Z,14.23
2023-02-13T13:22:23.554Z,13.81
2023-02-13T13:27:30.617Z,13.76
2023-02-13T13:32:33.632Z,14.02
2023-02-13T13:37:40.641Z,14.12
2023-02-13T13:42:51.609Z,14.69
2023-02-13T13:48:30.098Z,14.64
2023-02-13T13:53:31.765Z,14.82
2023-02-13T13:58:47.384Z,14.86
2023-02-13T14:04:00.138Z,14.32
2023-02-13T14:09:06.621Z,14.73
2023-02-13T14:14:26.850Z,14.72
2023-02-13T14:19:51.165Z,14.57
2023-02-13T14:24:54.783Z,13.73
2023-02-13T14:29:57.009Z,14.01
2023-02-13T14:35:02.301Z,14.18
2023-02-13T14:40:11.152Z,14.05
2023-02-13T14:45:22.980Z,14.05
2023-02-13T14:50:51.330Z,13.72
2023-02-13T14:56:02.555Z,13.55
2023-02-13T15:01:21.344Z,14.24
2023-02-13T15:06:33.987Z,13.72
2023-02-13T15:11:42.848Z,14.06
2023-02-13T15:16:48.130Z,13.58
2023-02-13T15:21:53.900Z,12.90
2023-02-13T15:27:00.757Z,13.41
2023-02-13T15:32:18.119Z,13.04
2023-02-13T15:37:24.454Z,12.73
2023-02-13T15:42:25.946Z,12.36
2023-02-13T15:47:30.833Z,12.08
2023-02-13T15:52:39.198Z,11.93
2023-02-13T15:57:41.375Z,11.91
2023-02-13T16:02:47.834Z,11.68
2023-02-13T16:07:55.254Z,11.25
2023-02-13T16:12:58.725Z,11.39
2023-02-13T16:18:00.455Z,11.22
2023-02-13T16:23:07.010Z,11.02
2023-02-13T16:28:25.541Z,10.82
2023-02-13T16:33:29.894Z,10.59
2023-02-13T16:38:37.459Z,10.08
2023-02-13T16:43:47.363Z,9.88
2023-02-13T16:48:48.741Z,9.74
2023-02-13T16:53:57.518Z,9.67
2023-02-13T16:59:23.264Z,9.76
2023-02-13T17:04:25.203Z,8.92
2023-02-13T17:09:26.693Z,8.66
2023-02-13T17:14:28.259Z,8.60
2023-02-13T17:19:29.762Z,8.62
2023-02-13T17:24:31.565Z,8.38
2023-02-13T17:29:33.009Z,8.30
2023-02-13T17:34:34.457Z,8.16
2023-02-13T17:39:35.907Z,7.86
2023-02-13T17:44:37.345Z,7.84
2023-02-13T17:49:38.895Z,7.47
2023-02-13T17:54:44.007Z,7.47
2023-02-13T17:59:46.210Z,7.62
2023-02-13T18:04:48.740Z,7.34
2023-02-13T18:09:50.333Z,7.43
2023-02-13T18:14:52.886Z,7.30
2023-02-13T18:19:55.755Z,6.83
2023-02-13T18:24:57.267Z,6.60
2023-02-13T18:29:58.886Z,6.69
2023-02-13T18:35:00.938Z,6.50
2023-02-13T18:40:02.396Z,6.33
2023-02-13T18:45:04.280Z,5.87
2023-02-13T18:50:06.542Z,5.82
2023-02-13T18:55:08.296Z,5.77
2023-02-13T19:00:10.806Z,5.77
2023-02-13T19:05:12.292Z,5.48
2023-02-13T19:10:15.550Z,5.64
2023-02-13T19:15:17.142Z,5.65
2023-02-13T19:20:18.627Z,5.80
2023-02-13T19:25:22.081Z,5.68
2023-02-13T19:30:23.655Z,5.57
2023-02-13T19:35:25.337Z,5.50
2023-02-13T19:40:26.855Z,5.59
2023-02-13T19:45:28.339Z,5.33
2023-02-13T19:50:29.868Z,5.15
2023-02-13T19:55:31.568Z,4.98
2023-02-13T20:00:33.126Z,4.99
2023-02-13T20:05:41.388Z,5.14
2023-02-13T20:10:46.004Z,5.71
2023-02-13T20:15:47.472Z,5.76
2023-02-13T20:20:49.343Z,5.47
2023-02-13T20:25:50.811Z,5.34
2023-02-13T20:30:52.465Z,5.45
2023-02-13T20:35:54.077Z,5.31
2023-02-13T20:40:55.761Z,5.35
2023-02-13T20:45:57.300Z,5.15
2023-02-13T20:51:00.659Z,5.15
2023-02-13T20:56:08.188Z,5.04
2023-02-13T21:01:15.173Z,4.61
2023-02-13T21:06:16.733Z,4.79
2023-02-13T21:11:19.381Z,4.89
2023-02-13T21:16:24.597Z,4.67
2023-02-13T21:21:31.264Z,4.81
2023-02-13T21:26:33.048Z,4.00
2023-02-13T21:31:50.765Z,3.41
2023-02-13T21:36:52.261Z,3.73
2023-02-13T21:41:53.732Z,3.71
2023-02-13T21:46:55.407Z,3.64
2023-02-13T21:51:56.923Z,3.58
2023-02-13T21:56:58.418Z,3.84
2023-02-13T22:02:00.160Z,3.91
2023-02-13T22:07:01.668Z,4.03
2023-02-13T22:12:04.292Z,3.97
2023-02-13T22:17:05.904Z,3.99
2023-02-13T22:22:07.441Z,3.74
2023-02-13T22:27:08.906Z,3.36
2023-02-13T22:32:10.524Z,3.76
2023-02-13T22:37:12.616Z,3.71
2023-02-13T22:42:14.206Z,3.38
2023-02-13T22:47:15.753Z,3.30
2023-02-13T22:52:17.191Z,3.26
2023-02-13T22:57:18.635Z,3.19
2023-02-13T23:02:20.160Z,3.47
2023-02-13T23:07:21.645Z,2.91
2023-02-13T23:12:45.401Z,3.23
2023-02-13T23:18:05.596Z,2.87
2023-02-13T23:23:07.059Z,2.58
2023-02-13T23:28:08.603Z,2.26
2023-02-13T23:33:10.071Z,2.63
2023-02-13T23:38:11.546Z,2.69
2023-02-13T23:43:13.013Z,2.55
2023-02-13T23:48:14.471Z,2.27
2023-02-13T23:53:15.923Z,2.32
2023-02-13T23:58:17.396Z,2.69
